sensor_id;sensor_type;location;lat;lon;timestamp;pressure;altitude;pressure_sealevel;temperature;humidity
65997;BME280;52765;52.258;21.052;2023-05-11T00:01:05;101199.25;;;11.03;42.14
65997;BME280;52765;52.258;21.052;2023-05-11T00:03:32;101195.50;;;10.94;42.30
65997;BME280;52765;52.258;21.052;2023-05-11T00:06:01;101190.13;;;10.94;42.31
65997;BME280;52765;52.258;21.052;2023-05-11T00:08:29;101203.59;;;10.94;42.01
65997;BME280;52765;52.258;21.052;2023-05-11T00:10:54;101191.97;;;10.93;42.14
65997;BME280;52765;52.258;21.052;2023-05-11T00:13:20;101194.22;;;10.88;42.15
65997;BME280;52765;52.258;21.052;2023-05-11T00:15:45;101192.81;;;10.84;42.21
65997;BME280;52765;52.258;21.052;2023-05-11T00:18:11;101186.81;;;10.81;42.57
65997;BME280;52765;52.258;21.052;2023-05-11T00:20:36;101187.97;;;10.78;42.22
65997;BME280;52765;52.258;21.052;2023-05-11T00:23:02;101192.22;;;10.81;41.97
65997;BME280;52765;52.258;21.052;2023-05-11T00:25:28;101191.25;;;10.82;42.40
65997;BME280;52765;52.258;21.052;2023-05-11T00:27:54;101198.47;;;10.81;42.02
65997;BME280;52765;52.258;21.052;2023-05-11T00:30:19;101184.44;;;10.78;42.39
65997;BME280;52765;52.258;21.052;2023-05-11T00:32:45;101187.41;;;10.74;42.50
65997;BME280;52765;52.258;21.052;2023-05-11T00:35:12;101190.81;;;10.77;42.32
65997;BME280;52765;52.258;21.052;2023-05-11T00:37:38;101193.75;;;10.73;42.09
65997;BME280;52765;52.258;21.052;2023-05-11T00:40:04;101191.91;;;10.74;42.39
65997;BME280;52765;52.258;21.052;2023-05-11T00:42:30;101187.66;;;10.71;42.38
65997;BME280;52765;52.258;21.052;2023-05-11T00:44:55;101186.38;;;10.76;42.30
65997;BME280;52765;52.258;21.052;2023-05-11T00:47:21;101184.13;;;10.81;41.82
65997;BME280;52765;52.258;21.052;2023-05-11T00:49:48;101182.44;;;10.80;42.33
65997;BME280;52765;52.258;21.052;2023-05-11T00:52:14;101190.81;;;10.77;42.14
65997;BME280;52765;52.258;21.052;2023-05-11T00:54:40;101180.28;;;10.73;42.26
65997;BME280;52765;52.258;21.052;2023-05-11T00:57:06;101180.44;;;10.72;42.12
65997;BME280;52765;52.258;21.052;2023-05-11T00:59:31;101172.34;;;10.72;42.21
65997;BME280;52765;52.258;21.052;2023-05-11T01:01:57;101189.34;;;10.63;42.21
65997;BME280;52765;52.258;21.052;2023-05-11T01:04:23;101181.53;;;10.60;42.21
65997;BME280;52765;52.258;21.052;2023-05-11T01:07:05;101179.56;;;10.62;42.27
65997;BME280;52765;52.258;21.052;2023-05-11T01:15:45;101183.53;;;10.58;42.22
65997;BME280;52765;52.258;21.052;2023-05-11T01:20:45;101173.41;;;10.50;42.21
65997;BME280;52765;52.258;21.052;2023-05-11T01:31:18;101181.59;;;10.39;42.49
65997;BME280;52765;52.258;21.052;2023-05-11T01:33:55;101176.34;;;10.37;42.66
65997;BME280;52765;52.258;21.052;2023-05-11T01:36:28;101184.69;;;10.34;42.08
65997;BME280;52765;52.258;21.052;2023-05-11T01:39:00;101172.22;;;10.33;42.36
65997;BME280;52765;52.258;21.052;2023-05-11T01:41:27;101172.31;;;10.31;42.36
65997;BME280;52765;52.258;21.052;2023-05-11T01:43:56;101182.38;;;10.29;42.16
65997;BME280;52765;52.258;21.052;2023-05-11T01:46:25;101167.34;;;10.27;42.43
65997;BME280;52765;52.258;21.052;2023-05-11T01:48:53;101169.31;;;10.25;42.43
65997;BME280;52765;52.258;21.052;2023-05-11T01:51:21;101168.75;;;10.21;42.44
65997;BME280;52765;52.258;21.052;2023-05-11T01:53:48;101174.00;;;10.23;41.98
65997;BME280;52765;52.258;21.052;2023-05-11T01:56:16;101173.13;;;10.22;42.56
65997;BME280;52765;52.258;21.052;2023-05-11T01:58:50;101166.75;;;10.23;42.20
65997;BME280;52765;52.258;21.052;2023-05-11T02:01:16;101157.66;;;10.14;42.19
65997;BME280;52765;52.258;21.052;2023-05-11T02:03:45;101163.75;;;10.16;42.50
65997;BME280;52765;52.258;21.052;2023-05-11T02:06:12;101163.88;;;10.15;42.73
65997;BME280;52765;52.258;21.052;2023-05-11T02:08:40;101167.28;;;10.17;42.33
65997;BME280;52765;52.258;21.052;2023-05-11T02:11:07;101167.53;;;10.14;42.12
65997;BME280;52765;52.258;21.052;2023-05-11T02:13:35;101172.34;;;10.10;42.17
65997;BME280;52765;52.258;21.052;2023-05-11T02:16:03;101174.34;;;10.08;42.45
65997;BME280;52765;52.258;21.052;2023-05-11T02:18:30;101164.22;;;10.00;42.41
65997;BME280;52765;52.258;21.052;2023-05-11T02:20:57;101173.88;;;10.03;43.41
65997;BME280;52765;52.258;21.052;2023-05-11T02:23:25;101176.13;;;9.98;43.54
65997;BME280;52765;52.258;21.052;2023-05-11T02:25:52;101180.59;;;9.88;43.46
65997;BME280;52765;52.258;21.052;2023-05-11T02:28:21;101177.84;;;9.78;44.03
65997;BME280;52765;52.258;21.052;2023-05-11T02:30:49;101186.44;;;9.72;43.94
65997;BME280;52765;52.258;21.052;2023-05-11T02:33:20;101183.03;;;9.70;44.42
65997;BME280;52765;52.258;21.052;2023-05-11T02:35:50;101185.84;;;9.68;44.68
65997;BME280;52765;52.258;21.052;2023-05-11T02:38:16;101187.63;;;9.58;44.62
65997;BME280;52765;52.258;21.052;2023-05-11T02:40:48;101182.88;;;9.50;45.03
65997;BME280;52765;52.258;21.052;2023-05-11T02:43:20;101182.66;;;9.42;45.30
65997;BME280;52765;52.258;21.052;2023-05-11T02:45:50;101186.59;;;9.38;45.22
65997;BME280;52765;52.258;21.052;2023-05-11T02:48:21;101184.41;;;9.32;45.22
65997;BME280;52765;52.258;21.052;2023-05-11T02:50:50;101184.78;;;9.27;45.71
65997;BME280;52765;52.258;21.052;2023-05-11T02:53:18;101187.63;;;9.25;45.53
65997;BME280;52765;52.258;21.052;2023-05-11T02:55:46;101193.59;;;9.29;46.06
65997;BME280;52765;52.258;21.052;2023-05-11T02:58:12;101190.19;;;9.27;45.26
65997;BME280;52765;52.258;21.052;2023-05-11T03:00:38;101188.03;;;9.21;45.47
65997;BME280;52765;52.258;21.052;2023-05-11T03:03:04;101192.91;;;9.16;45.68
65997;BME280;52765;52.258;21.052;2023-05-11T03:05:29;101182.81;;;9.08;46.08
65997;BME280;52765;52.258;21.052;2023-05-11T03:07:57;101192.06;;;9.04;46.08
65997;BME280;52765;52.258;21.052;2023-05-11T03:10:26;101199.06;;;9.06;46.31
65997;BME280;52765;52.258;21.052;2023-05-11T03:12:53;101183.88;;;9.05;46.44
65997;BME280;52765;52.258;21.052;2023-05-11T03:15:20;101189.50;;;9.14;46.11
65997;BME280;52765;52.258;21.052;2023-05-11T03:17:46;101189.50;;;9.14;46.50
65997;BME280;52765;52.258;21.052;2023-05-11T03:20:12;101189.75;;;9.11;46.54
65997;BME280;52765;52.258;21.052;2023-05-11T03:22:41;101200.50;;;9.11;46.49
65997;BME280;52765;52.258;21.052;2023-05-11T03:25:08;101205.03;;;9.10;46.37
65997;BME280;52765;52.258;21.052;2023-05-11T03:27:34;101202.59;;;9.07;46.50
65997;BME280;52765;52.258;21.052;2023-05-11T03:30:03;101195.75;;;9.03;46.88
65997;BME280;52765;52.258;21.052;2023-05-11T03:32:29;101210.03;;;9.03;46.94
65997;BME280;52765;52.258;21.052;2023-05-11T03:34:55;101213.69;;;9.02;46.78
65997;BME280;52765;52.258;21.052;2023-05-11T03:37:21;101216.66;;;8.99;46.85
65997;BME280;52765;52.258;21.052;2023-05-11T03:39:51;101214.56;;;9.03;47.08
65997;BME280;52765;52.258;21.052;2023-05-11T03:42:20;101218.47;;;8.99;47.13
65997;BME280;52765;52.258;21.052;2023-05-11T03:44:48;101213.56;;;9.04;47.19
65997;BME280;52765;52.258;21.052;2023-05-11T03:47:16;101219.84;;;9.04;47.05
65997;BME280;52765;52.258;21.052;2023-05-11T03:49:43;101212.75;;;9.03;47.07
65997;BME280;52765;52.258;21.052;2023-05-11T03:52:09;101217.03;;;9.06;47.17
65997;BME280;52765;52.258;21.052;2023-05-11T03:54:36;101215.41;;;9.03;46.98
65997;BME280;52765;52.258;21.052;2023-05-11T03:57:08;101226.78;;;9.07;46.80
65997;BME280;52765;52.258;21.052;2023-05-11T03:59:34;101229.81;;;9.02;46.66
65997;BME280;52765;52.258;21.052;2023-05-11T04:02:01;101221.75;;;9.02;47.17
65997;BME280;52765;52.258;21.052;2023-05-11T04:04:28;101234.34;;;9.02;46.80
65997;BME280;52765;52.258;21.052;2023-05-11T04:06:59;101228.97;;;9.02;46.82
65997;BME280;52765;52.258;21.052;2023-05-11T04:09:25;101231.78;;;9.00;47.17
65997;BME280;52765;52.258;21.052;2023-05-11T04:11:51;101225.56;;;9.11;47.32
65997;BME280;52765;52.258;21.052;2023-05-11T04:14:16;101225.91;;;9.18;46.75
65997;BME280;52765;52.258;21.052;2023-05-11T04:16:43;101226.63;;;9.20;46.60
65997;BME280;52765;52.258;21.052;2023-05-11T04:19:09;101221.00;;;9.23;46.96
65997;BME280;52765;52.258;21.052;2023-05-11T04:21:35;101218.66;;;9.30;46.42
65997;BME280;52765;52.258;21.052;2023-05-11T04:24:01;101223.31;;;9.28;46.68
65997;BME280;52765;52.258;21.052;2023-05-11T04:26:26;101219.63;;;9.29;46.56
65997;BME280;52765;52.258;21.052;2023-05-11T04:28:52;101232.69;;;9.33;46.75
65997;BME280;52765;52.258;21.052;2023-05-11T04:31:17;101228.75;;;9.37;46.26
65997;BME280;52765;52.258;21.052;2023-05-11T04:33:43;101229.97;;;9.44;46.07
65997;BME280;52765;52.258;21.052;2023-05-11T04:36:08;101230.56;;;9.48;46.11
65997;BME280;52765;52.258;21.052;2023-05-11T04:38:34;101228.81;;;9.58;46.32
65997;BME280;52765;52.258;21.052;2023-05-11T04:41:06;101233.44;;;9.68;45.46
65997;BME280;52765;52.258;21.052;2023-05-11T04:43:33;101227.38;;;9.75;45.48
65997;BME280;52765;52.258;21.052;2023-05-11T04:45:59;101223.78;;;9.86;45.12
65997;BME280;52765;52.258;21.052;2023-05-11T04:48:25;101236.56;;;9.94;44.80
65997;BME280;52765;52.258;21.052;2023-05-11T04:50:52;101230.41;;;10.03;44.73
65997;BME280;52765;52.258;21.052;2023-05-11T04:53:17;101237.56;;;10.14;44.55
65997;BME280;52765;52.258;21.052;2023-05-11T04:55:43;101239.06;;;10.28;44.79
65997;BME280;52765;52.258;21.052;2023-05-11T04:58:08;101232.06;;;10.36;44.27
65997;BME280;52765;52.258;21.052;2023-05-11T05:00:46;101233.25;;;10.53;44.22
65997;BME280;52765;52.258;21.052;2023-05-11T05:05:59;101227.78;;;10.65;43.48
65997;BME280;52765;52.258;21.052;2023-05-11T05:08:27;101237.59;;;10.76;43.37
65997;BME280;52765;52.258;21.052;2023-05-11T05:10:52;101237.47;;;10.77;42.95
65997;BME280;52765;52.258;21.052;2023-05-11T05:13:18;101241.63;;;10.91;43.18
65997;BME280;52765;52.258;21.052;2023-05-11T05:15:43;101236.69;;;10.96;43.10
65997;BME280;52765;52.258;21.052;2023-05-11T05:18:09;101234.88;;;11.06;42.71
65997;BME280;52765;52.258;21.052;2023-05-11T05:20:34;101232.19;;;11.16;43.34
65997;BME280;52765;52.258;21.052;2023-05-11T05:23:00;101233.63;;;11.30;42.39
65997;BME280;52765;52.258;21.052;2023-05-11T05:25:36;101241.75;;;11.59;42.05
65997;BME280;52765;52.258;21.052;2023-05-11T05:28:11;101235.91;;;11.74;41.95
65997;BME280;52765;52.258;21.052;2023-05-11T05:31:16;101237.47;;;11.86;41.44
65997;BME280;52765;52.258;21.052;2023-05-11T05:33:50;101245.88;;;11.93;41.50
65997;BME280;52765;52.258;21.052;2023-05-11T05:36:36;101232.53;;;11.91;41.56
65997;BME280;52765;52.258;21.052;2023-05-11T05:39:32;101226.69;;;11.96;41.63
65997;BME280;52765;52.258;21.052;2023-05-11T05:45:41;101251.78;;;12.26;40.88
65997;BME280;52765;52.258;21.052;2023-05-11T05:48:45;101244.53;;;12.26;40.70
65997;BME280;52765;52.258;21.052;2023-05-11T05:51:33;101248.06;;;12.36;40.80
65997;BME280;52765;52.258;21.052;2023-05-11T05:54:14;101247.88;;;12.48;41.00
65997;BME280;52765;52.258;21.052;2023-05-11T06:00:26;101252.22;;;12.68;40.08
65997;BME280;52765;52.258;21.052;2023-05-11T06:03:27;101229.75;;;12.68;39.74
65997;BME280;52765;52.258;21.052;2023-05-11T06:06:33;101246.31;;;12.83;39.75
65997;BME280;52765;52.258;21.052;2023-05-11T06:09:10;101242.94;;;12.99;39.81
65997;BME280;52765;52.258;21.052;2023-05-11T06:11:38;101237.94;;;13.04;39.51
65997;BME280;52765;52.258;21.052;2023-05-11T06:14:31;101226.22;;;13.13;39.10
65997;BME280;52765;52.258;21.052;2023-05-11T06:16:56;101246.34;;;13.28;38.64
65997;BME280;52765;52.258;21.052;2023-05-11T06:19:25;101250.72;;;13.39;38.83
65997;BME280;52765;52.258;21.052;2023-05-11T06:21:50;101247.72;;;13.42;38.71
65997;BME280;52765;52.258;21.052;2023-05-11T06:24:16;101245.41;;;13.47;38.51
65997;BME280;52765;52.258;21.052;2023-05-11T06:26:41;101255.13;;;13.58;38.02
65997;BME280;52765;52.258;21.052;2023-05-11T06:29:09;101249.63;;;13.68;37.53
65997;BME280;52765;52.258;21.052;2023-05-11T06:34:41;101249.63;;;13.86;37.62
65997;BME280;52765;52.258;21.052;2023-05-11T06:37:09;101233.59;;;13.93;37.14
65997;BME280;52765;52.258;21.052;2023-05-11T06:39:34;101253.38;;;14.11;36.17
65997;BME280;52765;52.258;21.052;2023-05-11T06:42:02;101251.88;;;14.17;36.25
65997;BME280;52765;52.258;21.052;2023-05-11T06:44:27;101252.81;;;14.25;36.25
65997;BME280;52765;52.258;21.052;2023-05-11T06:46:53;101253.41;;;14.37;36.02
65997;BME280;52765;52.258;21.052;2023-05-11T06:49:18;101251.91;;;14.43;36.08
65997;BME280;52765;52.258;21.052;2023-05-11T06:51:43;101256.22;;;14.54;35.16
65997;BME280;52765;52.258;21.052;2023-05-11T06:54:09;101255.59;;;14.60;34.49
65997;BME280;52765;52.258;21.052;2023-05-11T06:56:34;101256.16;;;14.72;34.26
65997;BME280;52765;52.258;21.052;2023-05-11T06:59:01;101242.78;;;14.78;34.30
65997;BME280;52765;52.258;21.052;2023-05-11T07:01:26;101246.56;;;14.86;33.99
65997;BME280;52765;52.258;21.052;2023-05-11T07:03:55;101253.22;;;14.99;34.42
65997;BME280;52765;52.258;21.052;2023-05-11T07:06:20;101253.06;;;15.01;33.02
65997;BME280;52765;52.258;21.052;2023-05-11T07:08:46;101257.69;;;15.09;33.37
65997;BME280;52765;52.258;21.052;2023-05-11T07:11:12;101251.06;;;15.11;32.35
65997;BME280;52765;52.258;21.052;2023-05-11T07:13:39;101261.25;;;15.17;32.31
65997;BME280;52765;52.258;21.052;2023-05-11T07:16:06;101251.75;;;15.22;32.54
65997;BME280;52765;52.258;21.052;2023-05-11T07:18:31;101257.88;;;15.24;32.74
65997;BME280;52765;52.258;21.052;2023-05-11T07:20:57;101253.16;;;15.34;32.83
65997;BME280;52765;52.258;21.052;2023-05-11T07:23:22;101253.50;;;15.39;31.51
65997;BME280;52765;52.258;21.052;2023-05-11T07:25:48;101243.50;;;15.40;30.91
65997;BME280;52765;52.258;21.052;2023-05-11T07:28:13;101243.00;;;15.44;31.87
65997;BME280;52765;52.258;21.052;2023-05-11T07:30:39;101251.50;;;15.58;31.41
65997;BME280;52765;52.258;21.052;2023-05-11T07:33:05;101244.72;;;15.70;31.86
65997;BME280;52765;52.258;21.052;2023-05-11T07:35:31;101242.19;;;15.77;31.67
65997;BME280;52765;52.258;21.052;2023-05-11T07:37:56;101242.38;;;15.83;31.11
65997;BME280;52765;52.258;21.052;2023-05-11T07:40:22;101241.19;;;15.86;31.31
65997;BME280;52765;52.258;21.052;2023-05-11T07:42:47;101237.28;;;15.80;30.72
65997;BME280;52765;52.258;21.052;2023-05-11T07:45:13;101234.41;;;15.90;29.84
65997;BME280;52765;52.258;21.052;2023-05-11T07:47:38;101237.63;;;15.94;29.25
65997;BME280;52765;52.258;21.052;2023-05-11T07:50:04;101233.72;;;15.96;28.72
65997;BME280;52765;52.258;21.052;2023-05-11T07:52:30;101240.00;;;15.97;29.10
65997;BME280;52765;52.258;21.052;2023-05-11T07:54:55;101238.66;;;16.01;29.34
65997;BME280;52765;52.258;21.052;2023-05-11T07:57:21;101236.59;;;16.03;30.01
65997;BME280;52765;52.258;21.052;2023-05-11T07:59:46;101239.97;;;16.13;30.61
65997;BME280;52765;52.258;21.052;2023-05-11T08:02:12;101232.66;;;16.30;30.24
65997;BME280;52765;52.258;21.052;2023-05-11T08:04:38;101243.16;;;16.41;30.37
65997;BME280;52765;52.258;21.052;2023-05-11T08:07:03;101238.06;;;16.46;30.18
65997;BME280;52765;52.258;21.052;2023-05-11T08:09:29;101246.00;;;16.56;29.98
65997;BME280;52765;52.258;21.052;2023-05-11T08:11:54;101222.69;;;16.62;29.00
65997;BME280;52765;52.258;21.052;2023-05-11T08:14:25;101227.66;;;16.58;28.57
65997;BME280;52765;52.258;21.052;2023-05-11T08:16:51;101233.97;;;16.59;28.67
65997;BME280;52765;52.258;21.052;2023-05-11T08:19:16;101229.31;;;16.68;29.07
65997;BME280;52765;52.258;21.052;2023-05-11T08:21:42;101230.47;;;16.73;29.20
65997;BME280;52765;52.258;21.052;2023-05-11T08:24:09;101232.19;;;16.74;28.78
65997;BME280;52765;52.258;21.052;2023-05-11T08:26:34;101229.47;;;16.74;27.98
65997;BME280;52765;52.258;21.052;2023-05-11T08:29:00;101228.94;;;16.79;28.01
65997;BME280;52765;52.258;21.052;2023-05-11T08:31:25;101239.66;;;16.80;28.55
65997;BME280;52765;52.258;21.052;2023-05-11T08:33:51;101226.22;;;16.79;28.48
65997;BME280;52765;52.258;21.052;2023-05-11T08:36:16;101222.94;;;16.83;28.40
65997;BME280;52765;52.258;21.052;2023-05-11T08:38:42;101215.47;;;16.94;28.39
65997;BME280;52765;52.258;21.052;2023-05-11T08:41:11;101221.03;;;17.09;28.78
65997;BME280;52765;52.258;21.052;2023-05-11T08:43:38;101220.84;;;17.10;28.03
65997;BME280;52765;52.258;21.052;2023-05-11T08:46:05;101229.00;;;17.10;28.23
65997;BME280;52765;52.258;21.052;2023-05-11T08:48:32;101228.31;;;17.08;28.32
65997;BME280;52765;52.258;21.052;2023-05-11T08:50:58;101230.88;;;17.10;27.06
65997;BME280;52765;52.258;21.052;2023-05-11T08:53:24;101222.53;;;17.11;27.60
65997;BME280;52765;52.258;21.052;2023-05-11T08:55:53;101213.66;;;17.17;27.65
65997;BME280;52765;52.258;21.052;2023-05-11T08:58:19;101216.38;;;17.17;27.94
65997;BME280;52765;52.258;21.052;2023-05-11T09:00:50;101221.41;;;17.29;27.50
65997;BME280;52765;52.258;21.052;2023-05-11T09:03:16;101213.91;;;17.31;27.62
65997;BME280;52765;52.258;21.052;2023-05-11T09:05:44;101218.44;;;17.38;27.29
65997;BME280;52765;52.258;21.052;2023-05-11T09:08:11;101213.38;;;17.35;27.38
65997;BME280;52765;52.258;21.052;2023-05-11T09:10:37;101228.66;;;17.36;28.02
65997;BME280;52765;52.258;21.052;2023-05-11T09:13:02;101220.44;;;17.45;27.76
65997;BME280;52765;52.258;21.052;2023-05-11T09:15:29;101221.22;;;17.53;27.54
65997;BME280;52765;52.258;21.052;2023-05-11T09:17:54;101214.56;;;17.56;27.38
65997;BME280;52765;52.258;21.052;2023-05-11T09:20:29;101213.97;;;17.69;27.41
65997;BME280;52765;52.258;21.052;2023-05-11T09:22:56;101209.47;;;17.76;27.39
65997;BME280;52765;52.258;21.052;2023-05-11T09:25:23;101207.00;;;17.89;27.76
65997;BME280;52765;52.258;21.052;2023-05-11T09:27:49;101215.94;;;17.98;27.66
65997;BME280;52765;52.258;21.052;2023-05-11T09:30:21;101209.22;;;18.09;27.93
65997;BME280;52765;52.258;21.052;2023-05-11T09:32:52;101200.69;;;18.27;27.77
65997;BME280;52765;52.258;21.052;2023-05-11T09:35:26;101198.97;;;18.26;27.25
65997;BME280;52765;52.258;21.052;2023-05-11T09:40:29;101213.19;;;18.36;27.18
65997;BME280;52765;52.258;21.052;2023-05-11T09:42:55;101217.16;;;18.48;27.41
65997;BME280;52765;52.258;21.052;2023-05-11T09:45:34;101220.06;;;18.47;26.81
65997;BME280;52765;52.258;21.052;2023-05-11T09:48:00;101211.13;;;18.53;26.70
65997;BME280;52765;52.258;21.052;2023-05-11T09:50:33;101204.53;;;18.47;26.58
65997;BME280;52765;52.258;21.052;2023-05-11T09:52:58;101193.72;;;18.54;26.79
65997;BME280;52765;52.258;21.052;2023-05-11T09:55:24;101193.25;;;18.65;26.99
65997;BME280;52765;52.258;21.052;2023-05-11T09:57:57;101195.47;;;18.77;26.65
65997;BME280;52765;52.258;21.052;2023-05-11T10:00:24;101196.25;;;18.85;26.36
65997;BME280;52765;52.258;21.052;2023-05-11T10:03:06;101189.94;;;18.85;26.55
65997;BME280;52765;52.258;21.052;2023-05-11T10:05:34;101190.63;;;18.87;27.20
65997;BME280;52765;52.258;21.052;2023-05-11T10:08:02;101185.03;;;18.95;26.66
65997;BME280;52765;52.258;21.052;2023-05-11T10:10:30;101191.34;;;18.96;26.51
65997;BME280;52765;52.258;21.052;2023-05-11T10:12:58;101181.06;;;18.98;26.66
65997;BME280;52765;52.258;21.052;2023-05-11T10:15:25;101177.13;;;19.00;26.35
65997;BME280;52765;52.258;21.052;2023-05-11T10:17:56;101173.59;;;19.07;26.66
65997;BME280;52765;52.258;21.052;2023-05-11T10:20:23;101185.22;;;18.94;26.75
65997;BME280;52765;52.258;21.052;2023-05-11T10:22:53;101178.50;;;19.11;26.68
65997;BME280;52765;52.258;21.052;2023-05-11T10:25:23;101176.41;;;19.35;26.65
65997;BME280;52765;52.258;21.052;2023-05-11T10:27:50;101167.50;;;19.48;25.63
65997;BME280;52765;52.258;21.052;2023-05-11T10:30:15;101174.28;;;19.52;25.62
65997;BME280;52765;52.258;21.052;2023-05-11T10:32:43;101164.00;;;19.54;25.88
65997;BME280;52765;52.258;21.052;2023-05-11T10:35:10;101172.78;;;19.71;25.89
65997;BME280;52765;52.258;21.052;2023-05-11T10:37:35;101176.22;;;19.80;25.62
65997;BME280;52765;52.258;21.052;2023-05-11T10:40:02;101161.13;;;19.84;25.85
65997;BME280;52765;52.258;21.052;2023-05-11T11:01:40;101151.28;;;20.59;24.69
65997;BME280;52765;52.258;21.052;2023-05-11T11:04:10;101137.56;;;20.52;25.21
65997;BME280;52765;52.258;21.052;2023-05-11T11:06:41;101138.50;;;20.66;25.38
65997;BME280;52765;52.258;21.052;2023-05-11T11:09:11;101145.47;;;20.69;25.83
65997;BME280;52765;52.258;21.052;2023-05-11T11:11:45;101148.47;;;20.87;25.13
65997;BME280;52765;52.258;21.052;2023-05-11T11:14:14;101135.44;;;21.03;25.54
65997;BME280;52765;52.258;21.052;2023-05-11T11:20:03;101155.06;;;21.20;25.96
65997;BME280;52765;52.258;21.052;2023-05-11T11:25:12;101142.31;;;21.47;25.30
65997;BME280;52765;52.258;21.052;2023-05-11T11:30:28;101130.28;;;21.61;24.99
65997;BME280;52765;52.258;21.052;2023-05-11T11:38:10;101134.50;;;21.71;23.31
65997;BME280;52765;52.258;21.052;2023-05-11T11:40:37;101130.06;;;21.70;23.60
65997;BME280;52765;52.258;21.052;2023-05-11T11:46:01;101132.56;;;22.05;24.50
65997;BME280;52765;52.258;21.052;2023-05-11T11:48:31;101126.84;;;22.13;24.24
65997;BME280;52765;52.258;21.052;2023-05-11T11:56:02;101135.13;;;22.65;22.31
65997;BME280;52765;52.258;21.052;2023-05-11T12:01:12;101133.19;;;22.79;23.21
65997;BME280;52765;52.258;21.052;2023-05-11T12:03:39;101137.97;;;22.97;22.49
65997;BME280;52765;52.258;21.052;2023-05-11T12:06:06;101127.97;;;23.09;22.85
65997;BME280;52765;52.258;21.052;2023-05-11T12:08:34;101122.22;;;23.17;22.48
65997;BME280;52765;52.258;21.052;2023-05-11T12:11:00;101119.53;;;23.36;22.23
65997;BME280;52765;52.258;21.052;2023-05-11T12:13:28;101122.50;;;23.34;22.07
65997;BME280;52765;52.258;21.052;2023-05-11T12:16:11;101123.06;;;23.43;22.40
65997;BME280;52765;52.258;21.052;2023-05-11T12:18:37;101113.31;;;23.22;22.01
65997;BME280;52765;52.258;21.052;2023-05-11T12:21:03;101112.22;;;23.23;22.07
65997;BME280;52765;52.258;21.052;2023-05-11T12:23:29;101120.91;;;23.26;22.46
65997;BME280;52765;52.258;21.052;2023-05-11T12:26:07;101121.31;;;23.55;22.06
65997;BME280;52765;52.258;21.052;2023-05-11T12:28:32;101111.69;;;23.64;22.38
65997;BME280;52765;52.258;21.052;2023-05-11T12:30:58;101116.56;;;23.62;22.34
65997;BME280;52765;52.258;21.052;2023-05-11T12:33:24;101119.50;;;23.68;22.21
65997;BME280;52765;52.258;21.052;2023-05-11T12:35:53;101116.44;;;23.82;21.71
65997;BME280;52765;52.258;21.052;2023-05-11T12:38:19;101106.34;;;23.70;21.52
65997;BME280;52765;52.258;21.052;2023-05-11T12:40:49;101107.28;;;23.89;22.02
65997;BME280;52765;52.258;21.052;2023-05-11T12:43:16;101108.97;;;24.08;22.25
65997;BME280;52765;52.258;21.052;2023-05-11T12:45:43;101114.34;;;24.22;21.86
65997;BME280;52765;52.258;21.052;2023-05-11T12:48:09;101102.78;;;24.13;21.65
65997;BME280;52765;52.258;21.052;2023-05-11T12:50:40;101104.63;;;24.19;22.04
65997;BME280;52765;52.258;21.052;2023-05-11T12:53:16;101102.00;;;24.24;22.23
65997;BME280;52765;52.258;21.052;2023-05-11T12:55:42;101099.88;;;24.26;22.32
65997;BME280;52765;52.258;21.052;2023-05-11T12:58:14;101105.00;;;24.60;22.17
65997;BME280;52765;52.258;21.052;2023-05-11T13:00:57;101099.97;;;24.87;22.05
65997;BME280;52765;52.258;21.052;2023-05-11T13:03:24;101098.66;;;24.89;21.26
65997;BME280;52765;52.258;21.052;2023-05-11T13:05:50;101082.59;;;24.86;21.78
65997;BME280;52765;52.258;21.052;2023-05-11T13:08:18;101091.13;;;24.66;22.03
65997;BME280;52765;52.258;21.052;2023-05-11T13:10:44;101093.06;;;24.66;22.17
65997;BME280;52765;52.258;21.052;2023-05-11T13:13:24;101091.38;;;24.65;21.27
65997;BME280;52765;52.258;21.052;2023-05-11T13:15:50;101084.56;;;24.67;21.65
65997;BME280;52765;52.258;21.052;2023-05-11T13:18:16;101086.44;;;24.85;21.78
65997;BME280;52765;52.258;21.052;2023-05-11T13:20:42;101081.97;;;24.84;21.21
65997;BME280;52765;52.258;21.052;2023-05-11T13:23:09;101085.16;;;25.00;21.13
65997;BME280;52765;52.258;21.052;2023-05-11T13:28:10;101084.28;;;24.87;20.65
65997;BME280;52765;52.258;21.052;2023-05-11T13:30:37;101080.19;;;24.78;20.80
65997;BME280;52765;52.258;21.052;2023-05-11T13:33:02;101087.09;;;24.69;20.66
65997;BME280;52765;52.258;21.052;2023-05-11T13:35:28;101077.91;;;24.75;21.02
65997;BME280;52765;52.258;21.052;2023-05-11T13:37:53;101071.84;;;24.97;21.16
65997;BME280;52765;52.258;21.052;2023-05-11T13:40:19;101074.28;;;25.05;21.06
65997;BME280;52765;52.258;21.052;2023-05-11T13:42:44;101078.06;;;24.92;21.18
65997;BME280;52765;52.258;21.052;2023-05-11T13:45:10;101076.28;;;24.98;21.02
65997;BME280;52765;52.258;21.052;2023-05-11T13:47:36;101070.75;;;24.98;21.06
65997;BME280;52765;52.258;21.052;2023-05-11T13:50:02;101072.34;;;24.63;21.23
65997;BME280;52765;52.258;21.052;2023-05-11T13:52:28;101076.91;;;24.69;21.44
65997;BME280;52765;52.258;21.052;2023-05-11T13:54:54;101075.13;;;24.75;21.27
65997;BME280;52765;52.258;21.052;2023-05-11T13:57:21;101072.06;;;24.83;21.69
65997;BME280;52765;52.258;21.052;2023-05-11T13:59:46;101072.00;;;25.02;20.60
65997;BME280;52765;52.258;21.052;2023-05-11T14:02:12;101066.50;;;25.14;20.89
65997;BME280;52765;52.258;21.052;2023-05-11T14:04:43;101065.50;;;25.08;20.65
65997;BME280;52765;52.258;21.052;2023-05-11T14:07:08;101060.09;;;25.32;20.11